sensor_id;sensor_type;location;lat;lon;timestamp;P1;durP1;ratioP1;P2;durP2;ratioP2
41568;SDS011;27283;52.504;13.358;2022-07-23T00:00:40;10.10;;;6.50;;
41568;SDS011;27283;52.504;13.358;2022-07-23T00:03:13;10.85;;;6.93;;
41568;SDS011;27283;52.504;13.358;2022-07-23T00:05:45;11.20;;;7.18;;
41568;SDS011;27283;52.504;13.358;2022-07-23T00:08:18;12.48;;;7.07;;
41568;SDS011;27283;52.504;13.358;2022-07-23T00:10:50;13.15;;;7.18;;
41568;SDS011;27283;52.504;13.358;2022-07-23T00:13:25;11.15;;;6.70;;
41568;SDS011;27283;52.504;13.358;2022-07-23T00:15:57;10.82;;;7.18;;
41568;SDS011;27283;52.504;13.358;2022-07-23T00:18:29;14.65;;;7.30;;
41568;SDS011;27283;52.504;13.358;2022-07-23T00:21:02;11.90;;;7.70;;
41568;SDS011;27283;52.504;13.358;2022-07-23T00:23:34;14.25;;;7.60;;
41568;SDS011;27283;52.504;13.358;2022-07-23T00:26:06;14.43;;;7.00;;
41568;SDS011;27283;52.504;13.358;2022-07-23T00:28:47;11.93;;;7.53;;
41568;SDS011;27283;52.504;13.358;2022-07-23T00:31:26;11.32;;;6.88;;
41568;SDS011;27283;52.504;13.358;2022-07-23T00:33:58;13.40;;;7.45;;
41568;SDS011;27283;52.504;13.358;2022-07-23T00:36:29;11.75;;;7.03;;
41568;SDS011;27283;52.504;13.358;2022-07-23T00:39:06;12.25;;;7.57;;
41568;SDS011;27283;52.504;13.358;2022-07-23T00:41:37;12.32;;;7.15;;
41568;SDS011;27283;52.504;13.358;2022-07-23T00:44:17;14.15;;;7.43;;
41568;SDS011;27283;52.504;13.358;2022-07-23T00:46:51;14.63;;;7.18;;
41568;SDS011;27283;52.504;13.358;2022-07-23T00:49:26;14.57;;;7.35;;
41568;SDS011;27283;52.504;13.358;2022-07-23T00:52:01;11.20;;;6.90;;
41568;SDS011;27283;52.504;13.358;2022-07-23T00:54:35;14.07;;;7.55;;
41568;SDS011;27283;52.504;13.358;2022-07-23T00:57:07;11.63;;;7.32;;
41568;SDS011;27283;52.504;13.358;2022-07-23T00:59:42;10.98;;;7.47;;
41568;SDS011;27283;52.504;13.358;2022-07-23T01:02:25;11.70;;;7.30;;
41568;SDS011;27283;52.504;13.358;2022-07-23T01:05:00;11.10;;;7.20;;
41568;SDS011;27283;52.504;13.358;2022-07-23T01:07:32;13.50;;;7.03;;
41568;SDS011;27283;52.504;13.358;2022-07-23T01:10:05;11.55;;;7.03;;
41568;SDS011;27283;52.504;13.358;2022-07-23T01:13:01;12.95;;;7.13;;
41568;SDS011;27283;52.504;13.358;2022-07-23T01:15:39;13.73;;;7.78;;
41568;SDS011;27283;52.504;13.358;2022-07-23T01:18:11;14.70;;;7.68;;
41568;SDS011;27283;52.504;13.358;2022-07-23T01:20:44;14.95;;;7.82;;
41568;SDS011;27283;52.504;13.358;2022-07-23T01:23:19;10.82;;;6.82;;
41568;SDS011;27283;52.504;13.358;2022-07-23T01:25:54;12.55;;;7.47;;
41568;SDS011;27283;52.504;13.358;2022-07-23T01:28:26;18.30;;;7.93;;
41568;SDS011;27283;52.504;13.358;2022-07-23T01:30:59;13.68;;;8.02;;
41568;SDS011;27283;52.504;13.358;2022-07-23T01:33:31;12.40;;;7.47;;
41568;SDS011;27283;52.504;13.358;2022-07-23T01:36:03;13.88;;;7.60;;
41568;SDS011;27283;52.504;13.358;2022-07-23T01:38:38;12.27;;;7.55;;
41568;SDS011;27283;52.504;13.358;2022-07-23T01:41:11;12.95;;;7.35;;
41568;SDS011;27283;52.504;13.358;2022-07-23T01:43:43;12.98;;;7.70;;
41568;SDS011;27283;52.504;13.358;2022-07-23T01:46:16;11.88;;;8.23;;
41568;SDS011;27283;52.504;13.358;2022-07-23T01:48:53;14.30;;;8.23;;
41568;SDS011;27283;52.504;13.358;2022-07-23T01:51:26;13.15;;;8.00;;
41568;SDS011;27283;52.504;13.358;2022-07-23T01:54:01;12.90;;;8.00;;
41568;SDS011;27283;52.504;13.358;2022-07-23T01:56:33;13.57;;;8.38;;
41568;SDS011;27283;52.504;13.358;2022-07-23T01:59:04;15.02;;;8.52;;
41568;SDS011;27283;52.504;13.358;2022-07-23T02:01:37;17.38;;;8.80;;
41568;SDS011;27283;52.504;13.358;2022-07-23T02:04:09;16.02;;;9.00;;
41568;SDS011;27283;52.504;13.358;2022-07-23T02:06:41;15.52;;;8.60;;
41568;SDS011;27283;52.504;13.358;2022-07-23T02:09:19;16.65;;;9.65;;
41568;SDS011;27283;52.504;13.358;2022-07-23T02:11:51;15.00;;;8.13;;
41568;SDS011;27283;52.504;13.358;2022-07-23T02:14:23;15.93;;;8.52;;
41568;SDS011;27283;52.504;13.358;2022-07-23T02:16:56;16.52;;;9.10;;
41568;SDS011;27283;52.504;13.358;2022-07-23T02:19:28;13.25;;;8.85;;
41568;SDS011;27283;52.504;13.358;2022-07-23T02:22:00;14.23;;;8.70;;
41568;SDS011;27283;52.504;13.358;2022-07-23T02:24:35;13.80;;;8.70;;
41568;SDS011;27283;52.504;13.358;2022-07-23T02:27:07;14.23;;;8.32;;
41568;SDS011;27283;52.504;13.358;2022-07-23T02:29:39;15.75;;;8.93;;
41568;SDS011;27283;52.504;13.358;2022-07-23T02:32:11;14.13;;;8.82;;
41568;SDS011;27283;52.504;13.358;2022-07-23T02:34:43;15.20;;;8.70;;
41568;SDS011;27283;52.504;13.358;2022-07-23T02:37:16;13.02;;;8.18;;
41568;SDS011;27283;52.504;13.358;2022-07-23T02:39:51;14.05;;;8.23;;
41568;SDS011;27283;52.504;13.358;2022-07-23T02:42:23;17.45;;;9.13;;
41568;SDS011;27283;52.504;13.358;2022-07-23T02:44:55;14.45;;;8.60;;
41568;SDS011;27283;52.504;13.358;2022-07-23T02:47:27;16.00;;;8.45;;
41568;SDS011;27283;52.504;13.358;2022-07-23T02:49:59;15.98;;;8.45;;
41568;SDS011;27283;52.504;13.358;2022-07-23T02:52:33;14.25;;;8.55;;
41568;SDS011;27283;52.504;13.358;2022-07-23T02:55:19;18.38;;;8.43;;
41568;SDS011;27283;52.504;13.358;2022-07-23T02:57:51;13.18;;;8.25;;
41568;SDS011;27283;52.504;13.358;2022-07-23T03:00:23;15.18;;;8.75;;
41568;SDS011;27283;52.504;13.358;2022-07-23T03:02:55;21.73;;;8.73;;
41568;SDS011;27283;52.504;13.358;2022-07-23T03:08:29;17.95;;;9.23;;
41568;SDS011;27283;52.504;13.358;2022-07-23T03:11:03;17.85;;;8.88;;
41568;SDS011;27283;52.504;13.358;2022-07-23T03:13:39;18.05;;;9.15;;
41568;SDS011;27283;52.504;13.358;2022-07-23T03:16:12;17.63;;;8.20;;
41568;SDS011;27283;52.504;13.358;2022-07-23T03:18:44;16.70;;;8.43;;
41568;SDS011;27283;52.504;13.358;2022-07-23T03:21:15;17.95;;;7.90;;
41568;SDS011;27283;52.504;13.358;2022-07-23T03:23:47;18.17;;;8.05;;
41568;SDS011;27283;52.504;13.358;2022-07-23T03:26:22;17.10;;;7.95;;
41568;SDS011;27283;52.504;13.358;2022-07-23T03:28:54;14.55;;;7.85;;
41568;SDS011;27283;52.504;13.358;2022-07-23T03:31:27;15.35;;;7.40;;
41568;SDS011;27283;52.504;13.358;2022-07-23T03:33:59;12.30;;;6.30;;
41568;SDS011;27283;52.504;13.358;2022-07-23T03:36:30;12.35;;;6.47;;
41568;SDS011;27283;52.504;13.358;2022-07-23T03:39:02;16.48;;;6.15;;
41568;SDS011;27283;52.504;13.358;2022-07-23T03:41:43;15.50;;;6.07;;
41568;SDS011;27283;52.504;13.358;2022-07-23T03:44:18;12.48;;;5.20;;
41568;SDS011;27283;52.504;13.358;2022-07-23T03:46:50;12.27;;;5.40;;
41568;SDS011;27283;52.504;13.358;2022-07-23T03:49:22;11.45;;;5.55;;
41568;SDS011;27283;52.504;13.358;2022-07-23T03:51:53;10.23;;;4.57;;
41568;SDS011;27283;52.504;13.358;2022-07-23T03:54:25;12.68;;;5.40;;
41568;SDS011;27283;52.504;13.358;2022-07-23T03:57:00;8.85;;;4.90;;
41568;SDS011;27283;52.504;13.358;2022-07-23T03:59:33;12.52;;;4.28;;
41568;SDS011;27283;52.504;13.358;2022-07-23T04:02:05;11.27;;;4.13;;
41568;SDS011;27283;52.504;13.358;2022-07-23T04:04:37;9.63;;;4.20;;
41568;SDS011;27283;52.504;13.358;2022-07-23T04:07:09;6.05;;;3.58;;
41568;SDS011;27283;52.504;13.358;2022-07-23T04:09:41;8.45;;;3.47;;
41568;SDS011;27283;52.504;13.358;2022-07-23T04:12:16;8.45;;;3.53;;
41568;SDS011;27283;52.504;13.358;2022-07-23T04:14:48;8.18;;;3.30;;
41568;SDS011;27283;52.504;13.358;2022-07-23T04:17:19;6.68;;;3.35;;
41568;SDS011;27283;52.504;13.358;2022-07-23T04:19:50;9.68;;;3.25;;
41568;SDS011;27283;52.504;13.358;2022-07-23T04:22:22;9.18;;;3.40;;
41568;SDS011;27283;52.504;13.358;2022-07-23T04:24:53;9.57;;;3.25;;
41568;SDS011;27283;52.504;13.358;2022-07-23T04:27:27;10.70;;;3.78;;
41568;SDS011;27283;52.504;13.358;2022-07-23T04:30:02;8.15;;;3.10;;
41568;SDS011;27283;52.504;13.358;2022-07-23T04:32:34;8.30;;;3.03;;
41568;SDS011;27283;52.504;13.358;2022-07-23T04:35:06;10.75;;;3.15;;
41568;SDS011;27283;52.504;13.358;2022-07-23T04:37:38;10.93;;;3.33;;
41568;SDS011;27283;52.504;13.358;2022-07-23T04:40:11;11.27;;;4.50;;
41568;SDS011;27283;52.504;13.358;2022-07-23T04:42:46;13.07;;;4.43;;
41568;SDS011;27283;52.504;13.358;2022-07-23T04:45:18;11.95;;;5.00;;
41568;SDS011;27283;52.504;13.358;2022-07-23T04:47:52;9.93;;;5.00;;
41568;SDS011;27283;52.504;13.358;2022-07-23T04:50:25;11.23;;;4.70;;
41568;SDS011;27283;52.504;13.358;2022-07-23T04:52:57;11.57;;;5.10;;
41568;SDS011;27283;52.504;13.358;2022-07-23T04:55:30;14.93;;;5.53;;
41568;SDS011;27283;52.504;13.358;2022-07-23T04:58:05;14.35;;;5.75;;
41568;SDS011;27283;52.504;13.358;2022-07-23T05:00:37;11.73;;;5.75;;
41568;SDS011;27283;52.504;13.358;2022-07-23T05:03:09;11.88;;;5.80;;
41568;SDS011;27283;52.504;13.358;2022-07-23T05:05:45;14.52;;;6.57;;
41568;SDS011;27283;52.504;13.358;2022-07-23T05:08:17;11.90;;;5.38;;
41568;SDS011;27283;52.504;13.358;2022-07-23T05:10:49;13.25;;;5.45;;
41568;SDS011;27283;52.504;13.358;2022-07-23T05:13:24;13.40;;;5.45;;
41568;SDS011;27283;52.504;13.358;2022-07-23T05:15:57;11.73;;;4.78;;
41568;SDS011;27283;52.504;13.358;2022-07-23T05:18:29;15.70;;;5.30;;
41568;SDS011;27283;52.504;13.358;2022-07-23T05:21:01;14.43;;;5.65;;
41568;SDS011;27283;52.504;13.358;2022-07-23T05:23:34;13.85;;;6.85;;
41568;SDS011;27283;52.504;13.358;2022-07-23T05:26:06;12.70;;;6.15;;
41568;SDS011;27283;52.504;13.358;2022-07-23T05:28:41;17.13;;;6.65;;
41568;SDS011;27283;52.504;13.358;2022-07-23T05:31:17;13.25;;;5.47;;
41568;SDS011;27283;52.504;13.358;2022-07-23T05:33:49;14.65;;;5.30;;
41568;SDS011;27283;52.504;13.358;2022-07-23T05:36:22;10.50;;;5.05;;
41568;SDS011;27283;52.504;13.358;2022-07-23T05:38:54;12.60;;;5.57;;
41568;SDS011;27283;52.504;13.358;2022-07-23T05:41:27;12.07;;;5.07;;
41568;SDS011;27283;52.504;13.358;2022-07-23T05:44:11;12.25;;;5.07;;
41568;SDS011;27283;52.504;13.358;2022-07-23T05:46:43;14.68;;;5.68;;
41568;SDS011;27283;52.504;13.358;2022-07-23T05:49:15;11.68;;;5.57;;
41568;SDS011;27283;52.504;13.358;2022-07-23T05:52:05;10.60;;;6.00;;
41568;SDS011;27283;52.504;13.358;2022-07-23T05:54:38;10.45;;;6.03;;
41568;SDS011;27283;52.504;13.358;2022-07-23T05:57:10;11.45;;;6.03;;
41568;SDS011;27283;52.504;13.358;2022-07-23T05:59:45;11.13;;;5.93;;
41568;SDS011;27283;52.504;13.358;2022-07-23T06:02:17;15.02;;;6.43;;
41568;SDS011;27283;52.504;13.358;2022-07-23T06:04:49;11.35;;;6.38;;
41568;SDS011;27283;52.504;13.358;2022-07-23T06:07:21;16.25;;;7.32;;
41568;SDS011;27283;52.504;13.358;2022-07-23T06:09:53;14.35;;;7.30;;
41568;SDS011;27283;52.504;13.358;2022-07-23T06:12:25;15.68;;;7.57;;
41568;SDS011;27283;52.504;13.358;2022-07-23T06:15:29;15.43;;;7.57;;
41568;SDS011;27283;52.504;13.358;2022-07-23T06:18:01;12.43;;;7.43;;
41568;SDS011;27283;52.504;13.358;2022-07-23T06:23:36;12.68;;;6.80;;
41568;SDS011;27283;52.504;13.358;2022-07-23T06:26:07;11.95;;;5.78;;
41568;SDS011;27283;52.504;13.358;2022-07-23T06:28:42;12.13;;;6.60;;
41568;SDS011;27283;52.504;13.358;2022-07-23T06:31:20;12.40;;;5.80;;
41568;SDS011;27283;52.504;13.358;2022-07-23T06:33:52;20.83;;;6.65;;
41568;SDS011;27283;52.504;13.358;2022-07-23T06:36:27;12.13;;;6.68;;
41568;SDS011;27283;52.504;13.358;2022-07-23T06:38:58;20.55;;;6.97;;
41568;SDS011;27283;52.504;13.358;2022-07-23T06:41:31;12.68;;;7.15;;
41568;SDS011;27283;52.504;13.358;2022-07-23T06:44:08;16.30;;;7.20;;
41568;SDS011;27283;52.504;13.358;2022-07-23T06:46:44;15.57;;;6.90;;
41568;SDS011;27283;52.504;13.358;2022-07-23T06:49:15;14.25;;;7.60;;
41568;SDS011;27283;52.504;13.358;2022-07-23T06:51:47;17.95;;;7.85;;
41568;SDS011;27283;52.504;13.358;2022-07-23T06:54:26;19.13;;;8.50;;
41568;SDS011;27283;52.504;13.358;2022-07-23T06:56:57;20.55;;;7.53;;
41568;SDS011;27283;52.504;13.358;2022-07-23T06:59:29;16.35;;;8.05;;
41568;SDS011;27283;52.504;13.358;2022-07-23T07:02:05;21.90;;;7.80;;
41568;SDS011;27283;52.504;13.358;2022-07-23T07:04:37;13.88;;;7.10;;
41568;SDS011;27283;52.504;13.358;2022-07-23T07:07:14;17.85;;;7.80;;
41568;SDS011;27283;52.504;13.358;2022-07-23T07:09:48;17.50;;;7.68;;
41568;SDS011;27283;52.504;13.358;2022-07-23T07:12:20;15.10;;;7.45;;
41568;SDS011;27283;52.504;13.358;2022-07-23T07:14:51;15.07;;;8.02;;
41568;SDS011;27283;52.504;13.358;2022-07-23T07:17:35;16.92;;;7.95;;
41568;SDS011;27283;52.504;13.358;2022-07-23T07:20:11;16.67;;;7.45;;
41568;SDS011;27283;52.504;13.358;2022-07-23T07:22:45;14.88;;;7.10;;
41568;SDS011;27283;52.504;13.358;2022-07-23T07:25:17;16.85;;;8.60;;
41568;SDS011;27283;52.504;13.358;2022-07-23T07:27:50;14.88;;;8.25;;
41568;SDS011;27283;52.504;13.358;2022-07-23T07:30:22;17.77;;;8.43;;
41568;SDS011;27283;52.504;13.358;2022-07-23T07:33:04;19.30;;;7.78;;
41568;SDS011;27283;52.504;13.358;2022-07-23T07:35:36;16.58;;;7.60;;
41568;SDS011;27283;52.504;13.358;2022-07-23T07:38:08;16.00;;;8.80;;
41568;SDS011;27283;52.504;13.358;2022-07-23T07:40:40;20.15;;;8.45;;
41568;SDS011;27283;52.504;13.358;2022-07-23T07:43:12;16.33;;;7.65;;
41568;SDS011;27283;52.504;13.358;2022-07-23T07:45:45;15.55;;;7.38;;
41568;SDS011;27283;52.504;13.358;2022-07-23T07:48:21;13.93;;;7.43;;
41568;SDS011;27283;52.504;13.358;2022-07-23T07:50:53;14.25;;;7.93;;
41568;SDS011;27283;52.504;13.358;2022-07-23T07:53:27;15.20;;;7.78;;
41568;SDS011;27283;52.504;13.358;2022-07-23T07:55:59;12.68;;;7.28;;
41568;SDS011;27283;52.504;13.358;2022-07-23T08:01:29;15.27;;;7.55;;
41568;SDS011;27283;52.504;13.358;2022-07-23T08:04:05;15.45;;;8.55;;
41568;SDS011;27283;52.504;13.358;2022-07-23T08:06:37;13.00;;;8.02;;
41568;SDS011;27283;52.504;13.358;2022-07-23T08:09:09;16.00;;;9.05;;
41568;SDS011;27283;52.504;13.358;2022-07-23T08:11:42;17.40;;;7.57;;
41568;SDS011;27283;52.504;13.358;2022-07-23T08:14:14;12.73;;;6.15;;
41568;SDS011;27283;52.504;13.358;2022-07-23T08:16:46;12.13;;;6.60;;
41568;SDS011;27283;52.504;13.358;2022-07-23T08:19:41;12.50;;;6.32;;
41568;SDS011;27283;52.504;13.358;2022-07-23T08:24:53;8.90;;;4.97;;
41568;SDS011;27283;52.504;13.358;2022-07-23T08:27:24;11.15;;;5.00;;
41568;SDS011;27283;52.504;13.358;2022-07-23T08:29:56;11.02;;;5.03;;
41568;SDS011;27283;52.504;13.358;2022-07-23T08:32:29;13.57;;;6.00;;
41568;SDS011;27283;52.504;13.358;2022-07-23T08:35:15;11.90;;;5.05;;
41568;SDS011;27283;52.504;13.358;2022-07-23T08:37:46;10.45;;;4.95;;
41568;SDS011;27283;52.504;13.358;2022-07-23T08:40:21;11.05;;;5.50;;
41568;SDS011;27283;52.504;13.358;2022-07-23T08:42:58;10.68;;;5.55;;
41568;SDS011;27283;52.504;13.358;2022-07-23T08:45:35;10.52;;;4.85;;
41568;SDS011;27283;52.504;13.358;2022-07-23T08:48:08;9.73;;;4.72;;
41568;SDS011;27283;52.504;13.358;2022-07-23T08:50:48;10.18;;;3.55;;
41568;SDS011;27283;52.504;13.358;2022-07-23T08:53:25;8.13;;;3.35;;
41568;SDS011;27283;52.504;13.358;2022-07-23T08:55:59;8.70;;;3.53;;
41568;SDS011;27283;52.504;13.358;2022-07-23T08:58:35;12.20;;;3.60;;
41568;SDS011;27283;52.504;13.358;2022-07-23T09:01:07;8.32;;;3.75;;
41568;SDS011;27283;52.504;13.358;2022-07-23T09:03:39;8.07;;;3.53;;
41568;SDS011;27283;52.504;13.358;2022-07-23T09:06:16;10.32;;;3.50;;
41568;SDS011;27283;52.504;13.358;2022-07-23T09:08:47;7.90;;;3.15;;
41568;SDS011;27283;52.504;13.358;2022-07-23T09:11:19;8.65;;;3.13;;
41568;SDS011;27283;52.504;13.358;2022-07-23T09:13:51;6.60;;;3.65;;
41568;SDS011;27283;52.504;13.358;2022-07-23T09:19:24;9.82;;;3.55;;
41568;SDS011;27283;52.504;13.358;2022-07-23T09:22:10;6.68;;;3.15;;
41568;SDS011;27283;52.504;13.358;2022-07-23T09:25:04;10.25;;;3.83;;
41568;SDS011;27283;52.504;13.358;2022-07-23T09:27:45;9.48;;;4.00;;
41568;SDS011;27283;52.504;13.358;2022-07-23T09:30:23;6.07;;;4.13;;
41568;SDS011;27283;52.504;13.358;2022-07-23T09:33:06;10.23;;;4.20;;
41568;SDS011;27283;52.504;13.358;2022-07-23T09:35:46;7.43;;;4.05;;
41568;SDS011;27283;52.504;13.358;2022-07-23T09:38:23;11.02;;;4.18;;
41568;SDS011;27283;52.504;13.358;2022-07-23T09:41:05;7.22;;;4.30;;
41568;SDS011;27283;52.504;13.358;2022-07-23T09:43:38;11.18;;;4.60;;
41568;SDS011;27283;52.504;13.358;2022-07-23T09:46:19;8.40;;;3.95;;
41568;SDS011;27283;52.504;13.358;2022-07-23T09:48:53;7.32;;;3.90;;
41568;SDS011;27283;52.504;13.358;2022-07-23T09:51:27;10.57;;;3.72;;
41568;SDS011;27283;52.504;13.358;2022-07-23T09:54:06;11.07;;;4.30;;
41568;SDS011;27283;52.504;13.358;2022-07-23T09:56:55;10.85;;;4.32;;
41568;SDS011;27283;52.504;13.358;2022-07-23T09:59:29;7.13;;;4.10;;
41568;SDS011;27283;52.504;13.358;2022-07-23T10:02:03;10.55;;;4.20;;
41568;SDS011;27283;52.504;13.358;2022-07-23T10:04:37;11.90;;;4.70;;
41568;SDS011;27283;52.504;13.358;2022-07-23T10:07:09;9.18;;;4.43;;
41568;SDS011;27283;52.504;13.358;2022-07-23T10:09:44;6.95;;;4.18;;
41568;SDS011;27283;52.504;13.358;2022-07-23T10:12:20;9.48;;;3.63;;
41568;SDS011;27283;52.504;13.358;2022-07-23T10:15:03;9.95;;;5.22;;
41568;SDS011;27283;52.504;13.358;2022-07-23T10:17:37;8.27;;;4.20;;
41568;SDS011;27283;52.504;13.358;2022-07-23T10:20:09;10.27;;;3.95;;
41568;SDS011;27283;52.504;13.358;2022-07-23T10:22:42;8.40;;;3.90;;
41568;SDS011;27283;52.504;13.358;2022-07-23T10:25:29;8.02;;;3.63;;
41568;SDS011;27283;52.504;13.358;2022-07-23T10:28:12;7.18;;;3.58;;
41568;SDS011;27283;52.504;13.358;2022-07-23T10:30:59;7.47;;;4.00;;
41568;SDS011;27283;52.504;13.358;2022-07-23T10:33:38;6.85;;;3.83;;
41568;SDS011;27283;52.504;13.358;2022-07-23T10:36:21;7.47;;;4.40;;
41568;SDS011;27283;52.504;13.358;2022-07-23T10:38:59;8.40;;;4.30;;
41568;SDS011;27283;52.504;13.358;2022-07-23T10:41:39;8.27;;;4.40;;
41568;SDS011;27283;52.504;13.358;2022-07-23T10:44:11;8.38;;;4.32;;
41568;SDS011;27283;52.504;13.358;2022-07-23T10:49:44;10.63;;;4.47;;
41568;SDS011;27283;52.504;13.358;2022-07-23T10:52:18;8.73;;;4.60;;
41568;SDS011;27283;52.504;13.358;2022-07-23T10:54:55;6.68;;;4.22;;
41568;SDS011;27283;52.504;13.358;2022-07-23T10:57:52;12.63;;;4.63;;
41568;SDS011;27283;52.504;13.358;2022-07-23T11:00:25;7.22;;;3.75;;
41568;SDS011;27283;52.504;13.358;2022-07-23T11:02:59;7.05;;;3.75;;
41568;SDS011;27283;52.504;13.358;2022-07-23T11:05:41;7.57;;;3.88;;
41568;SDS011;27283;52.504;13.358;2022-07-23T11:08:17;10.70;;;3.72;;
41568;SDS011;27283;52.504;13.358;2022-07-23T11:10:55;8.20;;;4.10;;
41568;SDS011;27283;52.504;13.358;2022-07-23T11:13:43;8.93;;;3.60;;
41568;SDS011;27283;52.504;13.358;2022-07-23T11:16:23;8.02;;;3.90;;
41568;SDS011;27283;52.504;13.358;2022-07-23T11:19:03;7.15;;;3.83;;
41568;SDS011;27283;52.504;13.358;2022-07-23T11:21:47;8.27;;;4.03;;
41568;SDS011;27283;52.504;13.358;2022-07-23T11:24:25;7.45;;;4.00;;
41568;SDS011;27283;52.504;13.358;2022-07-23T11:27:01;9.00;;;4.00;;
41568;SDS011;27283;52.504;13.358;2022-07-23T11:29:44;9.20;;;4.70;;
41568;SDS011;27283;52.504;13.358;2022-07-23T11:35:46;9.32;;;4.28;;
41568;SDS011;27283;52.504;13.358;2022-07-23T11:38:21;8.68;;;4.03;;
41568;SDS011;27283;52.504;13.358;2022-07-23T11:40:55;7.68;;;4.25;;
41568;SDS011;27283;52.504;13.358;2022-07-23T11:43:28;10.38;;;4.07;;
41568;SDS011;27283;52.504;13.358;2022-07-23T11:46:04;10.13;;;4.75;;
41568;SDS011;27283;52.504;13.358;2022-07-23T11:48:36;7.63;;;3.75;;
41568;SDS011;27283;52.504;13.358;2022-07-23T11:51:10;8.65;;;4.20;;
41568;SDS011;27283;52.504;13.358;2022-07-23T11:53:42;8.23;;;3.88;;
41568;SDS011;27283;52.504;13.358;2022-07-23T11:56:17;9.18;;;4.03;;
41568;SDS011;27283;52.504;13.358;2022-07-23T11:58:54;7.47;;;4.18;;
41568;SDS011;27283;52.504;13.358;2022-07-23T12:01:30;9.98;;;4.20;;
41568;SDS011;27283;52.504;13.358;2022-07-23T12:04:03;9.45;;;4.75;;
41568;SDS011;27283;52.504;13.358;2022-07-23T12:06:40;10.70;;;4.38;;
41568;SDS011;27283;52.504;13.358;2022-07-23T12:09:14;9.35;;;4.60;;
41568;SDS011;27283;52.504;13.358;2022-07-23T12:11:56;10.70;;;4.20;;
41568;SDS011;27283;52.504;13.358;2022-07-23T12:14:28;10.30;;;4.40;;
41568;SDS011;27283;52.504;13.358;2022-07-23T12:17:09;7.88;;;4.32;;
41568;SDS011;27283;52.504;13.358;2022-07-23T12:19:40;9.30;;;4.25;;
41568;SDS011;27283;52.504;13.358;2022-07-23T12:22:13;7.93;;;4.40;;
41568;SDS011;27283;52.504;13.358;2022-07-23T12:24:57;10.70;;;4.30;;
41568;SDS011;27283;52.504;13.358;2022-07-23T12:27:34;8.88;;;4.20;;
41568;SDS011;27283;52.504;13.358;2022-07-23T12:30:19;11.20;;;3.92;;
41568;SDS011;27283;52.504;13.358;2022-07-23T12:32:58;8.80;;;3.78;;
41568;SDS011;27283;52.504;13.358;2022-07-23T12:35:31;9.98;;;4.30;;
41568;SDS011;27283;52.504;13.358;2022-07-23T12:38:09;8.48;;;4.20;;
41568;SDS011;27283;52.504;13.358;2022-07-23T12:40:47;10.40;;;4.38;;
41568;SDS011;27283;52.504;13.358;2022-07-23T12:43:22;10.52;;;4.32;;
41568;SDS011;27283;52.504;13.358;2022-07-23T12:46:03;7.18;;;4.28;;
41568;SDS011;27283;52.504;13.358;2022-07-23T12:48:39;9.05;;;3.90;;
41568;SDS011;27283;52.504;13.358;2022-07-23T12:51:23;8.68;;;4.03;;
41568;SDS011;27283;52.504;13.358;2022-07-23T12:53:58;8.50;;;4.00;;
41568;SDS011;27283;52.504;13.358;2022-07-23T12:56:37;8.30;;;4.07;;
41568;SDS011;27283;52.504;13.358;2022-07-23T12:59:19;7.70;;;4.10;;
41568;SDS011;27283;52.504;13.358;2022-07-23T13:01:54;9.57;;;3.97;;
41568;SDS011;27283;52.504;13.358;2022-07-23T13:04:32;8.18;;;4.35;;
41568;SDS011;27283;52.504;13.358;2022-07-23T13:07:05;8.50;;;4.32;;
41568;SDS011;27283;52.504;13.358;2022-07-23T13:09:38;9.70;;;4.43;;
41568;SDS011;27283;52.504;13.358;2022-07-23T13:12:10;7.82;;;4.47;;
41568;SDS011;27283;52.504;13.358;2022-07-23T13:14:41;8.65;;;4.35;;
41568;SDS011;27283;52.504;13.358;2022-07-23T13:17:13;9.75;;;4.25;;
41568;SDS011;27283;52.504;13.358;2022-07-23T13:19:50;7.28;;;4.20;;
41568;SDS011;27283;52.504;13.358;2022-07-23T13:22:22;9.80;;;4.57;;
41568;SDS011;27283;52.504;13.358;2022-07-23T13:24:54;7.30;;;4.05;;
41568;SDS011;27283;52.504;13.358;2022-07-23T13:27:28;8.35;;;4.00;;
41568;SDS011;27283;52.504;13.358;2022-07-23T13:30:07;9.65;;;4.70;;
41568;SDS011;27283;52.504;13.358;2022-07-23T13:32:40;8.07;;;4.18;;
41568;SDS011;27283;52.504;13.358;2022-07-23T13:35:15;13.90;;;4.78;;
41568;SDS011;27283;52.504;13.358;2022-07-23T13:37:47;8.55;;;3.95;;
41568;SDS011;27283;52.504;13.358;2022-07-23T13:40:20;9.98;;;4.28;;
41568;SDS011;27283;52.504;13.358;2022-07-23T13:42:52;8.77;;;4.30;;
41568;SDS011;27283;52.504;13.358;2022-07-23T13:45:25;8.32;;;3.80;;
41568;SDS011;27283;52.504;13.358;2022-07-23T13:47:58;6.13;;;3.95;;
41568;SDS011;27283;52.504;13.358;2022-07-23T13:50:37;7.82;;;3.83;;
41568;SDS011;27283;52.504;13.358;2022-07-23T13:53:11;8.77;;;3.65;;
41568;SDS011;27283;52.504;13.358;2022-07-23T13:55:46;9.65;;;3.88;;
41568;SDS011;27283;52.504;13.358;2022-07-23T13:58:21;8.38;;;4.07;;
41568;SDS011;27283;52.504;13.358;2022-07-23T14:00:53;9.00;;;3.90;;
41568;SDS011;27283;52.504;13.358;2022-07-23T14:03:26;6.85;;;3.50;;
41568;SDS011;27283;52.504;13.358;2022-07-23T14:06:01;6.57;;;2.90;;
41568;SDS011;27283;52.504;13.358;2022-07-23T14:08:54;9.13;;;3.67;;
41568;SDS011;27283;52.504;13.358;2022-07-23T14:11:26;7.50;;;3.40;;
41568;SDS011;27283;52.504;13.358;2022-07-23T14:14:00;4.90;;;3.15;;
41568;SDS011;27283;52.504;13.358;2022-07-23T14:16:32;7.50;;;3.50;;
41568;SDS011;27283;52.504;13.358;2022-07-23T14:19:05;3.83;;;2.85;;
41568;SDS011;27283;52.504;13.358;2022-07-23T14:21:40;6.15;;;3.05;;
41568;SDS011;27283;52.504;13.358;2022-07-23T14:24:13;3.53;;;2.80;;
41568;SDS011;27283;52.504;13.358;2022-07-23T14:26:46;6.45;;;3.00;;
41568;SDS011;27283;52.504;13.358;2022-07-23T14:29:18;5.70;;;3.00;;
41568;SDS011;27283;52.504;13.358;2022-07-23T14:31:51;5.20;;;2.90;;
41568;SDS011;27283;52.504;13.358;2022-07-23T14:34:24;7.35;;;3.03;;
41568;SDS011;27283;52.504;13.358;2022-07-23T14:37:00;6.00;;;2.53;;
41568;SDS011;27283;52.504;13.358;2022-07-23T14:39:32;7.03;;;2.78;;
41568;SDS011;27283;52.504;13.358;2022-07-23T14:42:05;8.07;;;3.13;;
41568;SDS011;27283;52.504;13.358;2022-07-23T14:44:47;5.05;;;2.70;;
41568;SDS011;27283;52.504;13.358;2022-07-23T14:47:20;7.50;;;2.78;;
41568;SDS011;27283;52.504;13.358;2022-07-23T14:49:56;5.63;;;2.70;;
41568;SDS011;27283;52.504;13.358;2022-07-23T14:52:32;6.50;;;2.63;;
41568;SDS011;27283;52.504;13.358;2022-07-23T14:55:05;7.57;;;3.28;;
41568;SDS011;27283;52.504;13.358;2022-07-23T14:57:38;5.20;;;2.50;;
41568;SDS011;27283;52.504;13.358;2022-07-23T15:00:11;5.38;;;2.72;;
41568;SDS011;27283;52.504;13.358;2022-07-23T15:02:44;5.50;;;2.05;;
41568;SDS011;27283;52.504;13.358;2022-07-23T15:05:22;6.15;;;2.50;;
41568;SDS011;27283;52.504;13.358;2022-07-23T15:07:57;5.38;;;2.47;;
41568;SDS011;27283;52.504;13.358;2022-07-23T15:10:30;5.75;;;2.17;;
41568;SDS011;27283;52.504;13.358;2022-07-23T15:13:02;4.25;;;2.10;;
41568;SDS011;27283;52.504;13.358;2022-07-23T15:15:35;5.82;;;2.00;;
41568;SDS011;27283;52.504;13.358;2022-07-23T15:18:08;6.15;;;2.75;;
41568;SDS011;27283;52.504;13.358;2022-07-23T15:20:44;4.88;;;2.20;;
41568;SDS011;27283;52.504;13.358;2022-07-23T15:23:18;2.60;;;2.00;;
41568;SDS011;27283;52.504;13.358;2022-07-23T15:25:50;5.38;;;2.20;;
41568;SDS011;27283;52.504;13.358;2022-07-23T15:28:22;7.15;;;2.35;;
41568;SDS011;27283;52.504;13.358;2022-07-23T15:30:54;9.40;;;2.40;;